createdAt,value
2018-11-03T09:23:05.009Z,15.70
2018-11-03T09:25:32.434Z,15.70
2018-11-03T09:27:59.170Z,15.70
2018-11-03T09:30:25.705Z,15.70
2018-11-03T09:32:51.939Z,15.80
2018-11-03T09:35:18.083Z,15.80
2018-11-03T09:37:44.442Z,15.80
2018-11-03T09:40:11.026Z,15.80
2018-11-03T09:42:37.199Z,15.80
2018-11-03T09:45:03.593Z,15.80
2018-11-03T09:47:30.149Z,15.70
2018-11-03T09:49:56.769Z,15.80
2018-11-03T09:52:22.995Z,15.80
2018-11-03T09:54:49.214Z,15.80
2018-11-03T09:57:15.449Z,15.80
2018-11-03T09:59:41.687Z,15.80
2018-11-03T10:02:07.908Z,15.80
2018-11-03T10:04:34.139Z,15.80
2018-11-03T10:07:00.775Z,15.80
2018-11-03T10:09:27.404Z,15.80
2018-11-03T10:11:53.642Z,15.80
2018-11-03T10:14:21.090Z,15.80
2018-11-03T10:16:47.328Z,15.80
2018-11-03T10:19:13.551Z,15.80
2018-11-03T10:21:39.779Z,15.60
2018-11-03T10:24:11.742Z,15.70
2018-11-03T10:26:37.972Z,15.70
2018-11-03T10:29:04.197Z,15.70
2018-11-03T10:31:30.428Z,15.80
2018-11-03T10:33:56.651Z,15.80
2018-11-03T10:36:22.879Z,15.80
2018-11-03T10:38:49.524Z,15.80
2018-11-03T10:41:15.748Z,15.80
2018-11-03T10:43:41.986Z,15.80
2018-11-03T10:46:09.059Z,15.80
2018-11-03T10:48:35.662Z,15.80
2018-11-03T10:51:01.888Z,15.80
2018-11-03T10:53:28.208Z,15.80
2018-11-03T10:55:54.752Z,15.80
2018-11-03T10:58:20.980Z,15.80
2018-11-03T11:00:47.208Z,15.80
2018-11-03T11:03:13.437Z,15.80
2018-11-03T11:05:39.671Z,15.80
2018-11-03T11:08:05.892Z,15.80
2018-11-03T11:10:32.131Z,15.80
2018-11-03T11:12:58.354Z,15.80
2018-11-03T11:15:24.582Z,15.80
2018-11-03T11:17:50.810Z,15.80
2018-11-03T11:20:17.036Z,15.80
2018-11-03T11:22:43.267Z,15.80
2018-11-03T11:25:09.566Z,15.80
2018-11-03T11:27:36.137Z,15.80
2018-11-03T11:30:02.358Z,15.80
2018-11-03T11:32:28.647Z,15.80
2018-11-03T11:34:55.230Z,15.80
2018-11-03T11:37:21.907Z,15.80
2018-11-03T11:39:48.507Z,15.80
2018-11-03T11:42:14.745Z,15.80
2018-11-03T11:44:40.952Z,15.80
2018-11-03T11:47:07.182Z,15.80
2018-11-03T11:49:33.415Z,15.80
2018-11-03T11:51:59.644Z,15.80
2018-11-03T11:54:25.875Z,15.80
2018-11-03T11:56:53.751Z,15.80
2018-11-03T11:59:19.974Z,15.80
2018-11-03T12:01:46.225Z,15.80
2018-11-03T12:04:12.825Z,15.80
2018-11-03T12:06:39.059Z,15.80
2018-11-03T12:09:05.286Z,15.80
2018-11-03T12:11:31.512Z,15.80
2018-11-03T12:13:58.148Z,15.80
2018-11-03T12:16:24.800Z,15.70
2018-11-03T12:18:51.020Z,15.10
2018-11-03T12:21:17.250Z,14.80
2018-11-03T12:23:43.491Z,14.70
2018-11-03T12:26:09.725Z,14.90
2018-11-03T12:28:36.340Z,15.00
2018-11-03T12:31:02.571Z,15.20
2018-11-03T12:33:28.794Z,15.40
2018-11-03T12:35:55.028Z,15.60
2018-11-03T12:38:21.250Z,15.60
2018-11-03T12:40:47.488Z,15.80
2018-11-03T12:43:14.116Z,16.00
2018-11-03T12:45:40.343Z,16.10
2018-11-03T12:48:06.620Z,16.20
2018-11-03T12:50:33.284Z,16.30
2018-11-03T12:52:59.860Z,16.40
2018-11-03T12:55:26.082Z,16.50
2018-11-03T12:57:52.345Z,16.50
2018-11-03T13:00:19.763Z,16.60
2018-11-03T13:02:46.005Z,16.60
2018-11-03T13:05:12.255Z,16.70
2018-11-03T13:07:38.880Z,16.70
2018-11-03T13:10:05.537Z,16.90
2018-11-03T13:12:32.143Z,16.90
2018-11-03T13:14:58.367Z,16.90
2018-11-03T13:17:24.595Z,16.90
2018-11-03T13:19:50.830Z,17.00
2018-11-03T13:22:17.055Z,17.00
2018-11-03T13:24:43.287Z,17.10
2018-11-03T13:27:09.505Z,17.10
2018-11-03T13:29:35.739Z,17.10
2018-11-03T13:32:01.962Z,17.10
2018-11-03T13:34:28.190Z,17.10
2018-11-03T13:36:54.423Z,17.20
2018-11-03T13:39:20.651Z,17.30
2018-11-03T13:41:46.889Z,17.30
2018-11-03T13:44:13.105Z,17.40
2018-11-03T13:46:39.341Z,17.40
2018-11-03T13:49:05.576Z,17.40
2018-11-03T13:51:31.795Z,17.40
2018-11-03T13:53:58.027Z,17.50
2018-11-03T13:56:24.256Z,17.60
2018-11-03T13:58:50.484Z,17.50
2018-11-03T14:01:16.710Z,17.50
2018-11-03T14:03:42.945Z,17.50
2018-11-03T14:06:09.172Z,17.60
2018-11-03T14:08:35.403Z,17.60
2018-11-03T14:11:01.696Z,17.70
2018-11-03T14:13:28.265Z,17.70
2018-11-03T14:15:54.491Z,17.80
2018-11-03T14:18:20.720Z,17.70
2018-11-03T14:20:46.943Z,17.70
2018-11-03T14:23:13.202Z,17.70
2018-11-03T14:25:39.831Z,17.90
2018-11-03T14:28:06.125Z,17.80
2018-11-03T14:30:32.700Z,17.80
2018-11-03T14:32:58.911Z,17.90
2018-11-03T14:35:25.140Z,17.90
2018-11-03T14:37:51.367Z,17.90
2018-11-03T14:40:17.600Z,17.90
2018-11-03T14:42:43.747Z,18.00
2018-11-03T14:45:10.127Z,18.00
2018-11-03T14:47:36.694Z,17.90
2018-11-03T14:50:02.919Z,18.00
2018-11-03T14:52:29.144Z,18.10
2018-11-03T14:54:55.379Z,18.10
2018-11-03T14:57:21.621Z,18.10
2018-11-03T14:59:47.830Z,18.10
2018-11-03T15:02:14.059Z,18.10
2018-11-03T15:04:40.287Z,18.20
2018-11-03T15:07:06.512Z,18.10
2018-11-03T15:09:32.743Z,18.10
2018-11-03T15:11:58.972Z,18.20
2018-11-03T15:14:25.353Z,18.30
2018-11-03T15:16:51.835Z,18.20
2018-11-03T15:19:18.063Z,18.20
2018-11-03T15:21:44.309Z,18.30
2018-11-03T15:24:10.528Z,18.30
2018-11-03T15:26:36.756Z,18.30
2018-11-03T15:29:02.984Z,18.30
2018-11-03T15:31:29.211Z,18.40
2018-11-03T15:33:55.438Z,18.40
2018-11-03T15:36:21.659Z,18.30
2018-11-03T15:38:47.894Z,18.30
2018-11-03T15:41:14.179Z,18.50
2018-11-03T15:43:41.262Z,18.40
2018-11-03T15:46:07.790Z,18.40
2018-11-03T15:48:34.057Z,18.30
2018-11-03T15:51:00.260Z,18.50
2018-11-03T15:53:26.479Z,18.40
2018-11-03T15:55:52.707Z,18.40
2018-11-03T15:58:18.938Z,18.50
2018-11-03T16:00:45.163Z,18.50
2018-11-03T16:03:11.387Z,18.40
2018-11-03T16:05:37.614Z,18.40
2018-11-03T16:08:03.860Z,18.50
2018-11-03T16:10:30.071Z,18.60
2018-11-03T16:12:56.299Z,18.50
2018-11-03T16:15:22.528Z,18.50
2018-11-03T16:17:48.758Z,18.50
2018-11-03T16:20:14.992Z,18.60
2018-11-03T16:22:41.235Z,18.50
2018-11-03T16:25:07.476Z,18.50
2018-11-03T16:27:33.674Z,18.60
2018-11-03T16:30:01.127Z,18.60
2018-11-03T16:32:27.413Z,18.50
2018-11-03T16:34:53.989Z,18.60
2018-11-03T16:37:20.228Z,18.70
2018-11-03T16:39:46.456Z,18.70
2018-11-03T16:42:12.675Z,18.60
2018-11-03T16:44:38.911Z,18.60
2018-11-03T16:47:05.138Z,18.70
2018-11-03T16:49:31.467Z,18.70
2018-11-03T16:51:57.999Z,18.60
2018-11-03T16:54:24.226Z,18.70
2018-11-03T16:56:50.451Z,18.80
2018-11-03T16:59:16.678Z,18.80
2018-11-03T17:01:42.909Z,19.00
2018-11-03T17:04:09.143Z,19.10
2018-11-03T17:06:35.392Z,19.10
2018-11-03T17:09:02.011Z,19.00
2018-11-03T17:11:28.236Z,18.80
2018-11-03T17:13:54.468Z,18.70
2018-11-03T17:16:20.690Z,18.70
2018-11-03T17:18:47.089Z,18.60
2018-11-03T17:21:14.027Z,18.40
2018-11-03T17:23:40.201Z,18.40
2018-11-03T17:26:06.420Z,18.30
2018-11-03T17:28:32.655Z,18.20
2018-11-03T17:30:58.886Z,18.20
2018-11-03T17:33:25.119Z,18.10
2018-11-03T17:35:51.347Z,18.00
2018-11-03T17:38:17.575Z,18.00
2018-11-03T17:40:43.802Z,17.90
2018-11-03T17:43:10.082Z,17.90
2018-11-03T17:45:36.666Z,17.80
2018-11-03T17:48:03.741Z,17.80
2018-11-03T17:50:29.947Z,17.80
2018-11-03T17:52:56.179Z,17.70
2018-11-03T17:55:22.407Z,17.70
2018-11-03T17:57:48.635Z,17.60
2018-11-03T18:00:14.930Z,17.60
2018-11-03T18:02:41.566Z,17.50
2018-11-03T18:05:07.739Z,17.50
2018-11-03T18:07:33.963Z,17.50
2018-11-03T18:10:00.188Z,17.40
2018-11-03T18:12:26.418Z,17.50
2018-11-03T18:14:52.657Z,17.50
2018-11-03T18:17:18.883Z,17.40
2018-11-03T18:19:45.182Z,17.40
2018-11-03T18:22:11.451Z,17.40
2018-11-03T18:24:37.772Z,17.40
2018-11-03T18:27:04.211Z,17.40
2018-11-03T18:29:30.436Z,17.40
2018-11-03T18:31:56.675Z,17.40
2018-11-03T18:34:22.896Z,17.40
2018-11-03T18:36:49.120Z,17.30
2018-11-03T18:39:15.364Z,17.30
2018-11-03T18:41:41.655Z,17.30
2018-11-03T18:44:08.223Z,17.30
2018-11-03T18:46:34.528Z,17.30
2018-11-03T18:49:01.091Z,17.30
2018-11-03T18:51:27.323Z,17.30
2018-11-03T18:53:53.556Z,17.30
2018-11-03T18:56:19.778Z,17.20
2018-11-03T18:58:46.006Z,17.20
2018-11-03T19:01:12.239Z,17.20
2018-11-03T19:03:38.470Z,17.20
2018-11-03T19:06:04.694Z,17.20
2018-11-03T19:08:30.921Z,17.20
2018-11-03T19:10:57.158Z,17.20
2018-11-03T19:13:23.391Z,17.20
2018-11-03T19:15:49.612Z,17.20
2018-11-03T19:18:15.838Z,17.20
2018-11-03T19:20:42.088Z,17.20
2018-11-03T19:23:08.308Z,17.20
2018-11-03T19:25:34.531Z,17.20
2018-11-03T19:28:00.763Z,17.20
2018-11-03T19:30:26.996Z,17.10
2018-11-03T19:32:53.219Z,17.10
2018-11-03T19:35:19.451Z,17.10
2018-11-03T19:37:45.679Z,17.10
2018-11-03T19:40:11.916Z,17.10
2018-11-03T19:42:38.134Z,17.10
2018-11-03T19:45:04.366Z,17.10
2018-11-03T19:47:30.599Z,17.10
2018-11-03T19:49:56.851Z,17.10
2018-11-03T19:52:23.059Z,17.10
2018-11-03T19:54:49.395Z,17.10
2018-11-03T19:57:15.927Z,17.10
2018-11-03T19:59:42.152Z,17.10
2018-11-03T20:02:08.393Z,17.10
2018-11-03T20:04:34.616Z,17.00
2018-11-03T20:07:00.843Z,17.00
2018-11-03T20:09:27.075Z,17.00
2018-11-03T20:11:53.302Z,17.00
2018-11-03T20:14:19.533Z,17.00
2018-11-03T20:16:45.758Z,17.00
2018-11-03T20:19:11.990Z,17.00
2018-11-03T20:21:38.221Z,17.00
2018-11-03T20:24:04.981Z,16.90
2018-11-03T20:26:31.507Z,16.90
2018-11-03T20:28:57.736Z,17.00
2018-11-03T20:31:23.962Z,16.90
2018-11-03T20:33:50.192Z,16.90
2018-11-03T20:36:16.442Z,16.90
2018-11-03T20:38:42.651Z,16.90
2018-11-03T20:41:08.879Z,16.90
2018-11-03T20:43:35.117Z,16.90
2018-11-03T20:46:01.344Z,16.90
2018-11-03T20:48:27.566Z,16.90
2018-11-03T20:50:53.800Z,16.90
2018-11-03T20:53:20.439Z,16.90
2018-11-03T20:55:46.667Z,16.90
2018-11-03T20:58:17.819Z,16.90
2018-11-03T21:00:44.041Z,16.80
2018-11-03T21:03:10.280Z,16.80
2018-11-03T21:05:36.500Z,16.80
2018-11-03T21:08:02.769Z,16.80
2018-11-03T21:10:29.391Z,16.80
2018-11-03T21:12:55.606Z,16.80
2018-11-03T21:15:21.835Z,16.80
2018-11-03T21:17:48.067Z,16.80
2018-11-03T21:20:14.339Z,16.80
2018-11-03T21:22:40.960Z,16.80
2018-11-03T21:25:07.577Z,16.80
2018-11-03T21:27:33.804Z,16.70
2018-11-03T21:30:00.048Z,16.70
2018-11-03T21:32:26.735Z,16.80
2018-11-03T21:34:53.311Z,16.70
2018-11-03T21:37:19.538Z,16.70
2018-11-03T21:39:45.768Z,16.70
2018-11-03T21:42:12.008Z,16.70
2018-11-03T21:44:38.241Z,16.70
2018-11-03T21:47:04.553Z,16.70
2018-11-03T21:49:31.103Z,16.70
2018-11-03T21:51:57.331Z,16.70
2018-11-03T21:54:23.565Z,16.70
2018-11-03T21:56:49.979Z,16.60
2018-11-03T21:59:16.419Z,16.60
2018-11-03T22:01:42.659Z,16.60
2018-11-03T22:04:08.891Z,16.60
2018-11-03T22:06:35.112Z,16.60
2018-11-03T22:09:01.356Z,16.60
2018-11-03T22:11:27.575Z,16.60
2018-11-03T22:13:53.811Z,16.60
2018-11-03T22:16:20.037Z,16.60
2018-11-03T22:18:46.311Z,16.60
2018-11-03T22:21:12.495Z,16.60
2018-11-03T22:23:38.724Z,16.60
2018-11-03T22:26:04.951Z,16.60
2018-11-03T22:28:31.668Z,16.60
2018-11-03T22:30:57.826Z,16.60
2018-11-03T22:33:24.061Z,16.60
2018-11-03T22:35:50.278Z,16.50
2018-11-03T22:38:16.509Z,16.50
2018-11-03T22:40:42.747Z,16.50
2018-11-03T22:43:08.975Z,16.50
2018-11-03T22:45:35.203Z,16.50
2018-11-03T22:48:01.436Z,16.50
2018-11-03T22:50:27.656Z,16.50
2018-11-03T22:52:53.884Z,16.50
2018-11-03T22:55:20.123Z,16.50
2018-11-03T22:57:46.352Z,16.50
2018-11-03T23:00:12.597Z,16.50
2018-11-03T23:02:38.810Z,16.50
2018-11-03T23:05:05.036Z,16.50
2018-11-03T23:07:31.266Z,16.40
2018-11-03T23:09:57.492Z,16.40
2018-11-03T23:12:23.727Z,16.40
2018-11-03T23:14:49.951Z,16.40
2018-11-03T23:17:16.178Z,16.40
2018-11-03T23:19:42.420Z,16.40
2018-11-03T23:22:08.667Z,16.40
2018-11-03T23:24:35.283Z,16.40
2018-11-03T23:27:01.516Z,16.40
2018-11-03T23:29:27.822Z,16.40
2018-11-03T23:31:54.381Z,16.40
2018-11-03T23:34:20.613Z,16.40
2018-11-03T23:36:46.840Z,16.40
2018-11-03T23:39:13.074Z,16.40
2018-11-03T23:41:39.291Z,16.40
2018-11-03T23:44:05.524Z,16.40
2018-11-03T23:46:32.577Z,16.40
2018-11-03T23:48:58.822Z,16.40
2018-11-03T23:51:25.439Z,16.40
2018-11-03T23:53:51.671Z,16.40
2018-11-03T23:56:17.899Z,16.40
2018-11-03T23:58:44.131Z,16.40
